Rossburg, OH

3:50 AM EST on February 01, 2015 (GMT -0500)
Eldora Speedway | Change Station
CLOSE
Current Station
Personal Weather Station
Location: New Weston, OH
Elevation: 1027 ft
Nearby Weather Stations
Active Advisory: Winter Weather Advisory

Elev 1027 ft 40.32 °N, 84.64 °W | Updated 41 seconds ago

Snow
Snow
33.0 °F
Feels Like 33 °F
N
3.0
Wind Variable Wind from SSW
Gusts 4.0 mph

Today
High -- | Low -- °F
--% Chance of Precip.
Yesterday
High -- | Low -- °F
Precip. -- in
7:47 AM 5:56 PM
Waxing Gibbous, 94% visible
Pressure 30.15 in
Visibility 3.0 miles
Clouds Few 300 ft
Mostly Cloudy 1800 ft
Overcast 6500 ft
Windchill 33 °F
Dew Point 32 °F
Humidity 96%
Rainfall 0.00 in
Snow Depth Not available.
UV 0 out of 12
Pollen .10 out of 12
Air Quality Not available.
Flu Activity Not available.
SPECI KDAY 010840Z 16004KT 3SM BR FEW003 BKN018 OVC065 01/00 A3015 RMK AO2 RAE31 P0001 I1001 T00060000

More Conditions Fewer Conditions

Pressure 30.15 in
Visibility 3.0 miles
Clouds Few 300 ft
Mostly Cloudy 1800 ft
Overcast 6500 ft
Windchill 33 °F
Dew Point 32 °F
Humidity 96%
Rainfall 0.00 in
Snow Depth Not available.
UV 0 out of 12
Pollen .10 out of 12
Air Quality Not available.
Flu Activity Not available.
SPECI KDAY 010840Z 16004KT 3SM BR FEW003 BKN018 OVC065 01/00 A3015 RMK AO2 RAE31 P0001 I1001 T00060000

More Conditions Fewer Conditions

10-Day Weather Forecast

Almanac

Astronomy

Feb. 01, 2015 Rise Set
Actual Time
Civil Twilight
Nautical Twilight
Astronomical Twilight
Moon
Length of Visible Light
Length of Day
Tomorrow will be .
, % of the Moon is Illuminated

Today's Extremes

State Highs State Lows

Community

WunderPhotos

Upload Photos

1,792,338 photos uploaded!

WunderBlogs® & News

Nearby

Air Quality

  Air Quality AQ Index Pollutant
Not available.

Snow Depth

Station Depth Elevation

Earthquake Activity

City Distance Mag. Time & Date
Minimum magnitude displayed is 2.5.

Coastal Water Temperatures

Place Temperature

Nearby Weather Stations